sensor_id;sensor_type;location;lat;lon;timestamp;P1;durP1;ratioP1;P2;durP2;ratioP2
78856;SDS011;68207;50.078;19.936;2023-05-27T00:00:47;9.70;;;3.70;;
78856;SDS011;68207;50.078;19.936;2023-05-27T00:03:13;8.30;;;4.00;;
78856;SDS011;68207;50.078;19.936;2023-05-27T00:05:38;11.50;;;4.30;;
78856;SDS011;68207;50.078;19.936;2023-05-27T00:08:03;6.10;;;3.40;;
78856;SDS011;68207;50.078;19.936;2023-05-27T00:10:29;10.70;;;3.80;;
78856;SDS011;68207;50.078;19.936;2023-05-27T00:12:54;9.60;;;4.00;;
78856;SDS011;68207;50.078;19.936;2023-05-27T00:15:20;8.70;;;4.50;;
78856;SDS011;68207;50.078;19.936;2023-05-27T00:17:45;9.40;;;3.60;;
78856;SDS011;68207;50.078;19.936;2023-05-27T00:20:10;11.10;;;3.80;;
78856;SDS011;68207;50.078;19.936;2023-05-27T00:22:37;12.00;;;4.40;;
78856;SDS011;68207;50.078;19.936;2023-05-27T00:25:03;8.60;;;4.10;;
78856;SDS011;68207;50.078;19.936;2023-05-27T00:27:28;8.60;;;3.60;;
78856;SDS011;68207;50.078;19.936;2023-05-27T00:29:53;10.50;;;3.50;;
78856;SDS011;68207;50.078;19.936;2023-05-27T00:32:19;8.70;;;3.70;;
78856;SDS011;68207;50.078;19.936;2023-05-27T00:34:44;10.90;;;3.90;;
78856;SDS011;68207;50.078;19.936;2023-05-27T00:37:10;9.80;;;4.20;;
78856;SDS011;68207;50.078;19.936;2023-05-27T00:39:35;9.80;;;4.70;;
78856;SDS011;68207;50.078;19.936;2023-05-27T00:42:00;9.40;;;3.70;;
78856;SDS011;68207;50.078;19.936;2023-05-27T00:44:27;10.70;;;4.70;;
78856;SDS011;68207;50.078;19.936;2023-05-27T00:46:52;11.40;;;3.60;;
78856;SDS011;68207;50.078;19.936;2023-05-27T00:49:18;9.80;;;3.60;;
78856;SDS011;68207;50.078;19.936;2023-05-27T00:51:44;11.60;;;4.10;;
78856;SDS011;68207;50.078;19.936;2023-05-27T00:54:09;11.50;;;4.10;;
78856;SDS011;68207;50.078;19.936;2023-05-27T00:56:36;12.50;;;4.00;;
78856;SDS011;68207;50.078;19.936;2023-05-27T00:59:01;8.20;;;3.90;;
78856;SDS011;68207;50.078;19.936;2023-05-27T01:01:27;10.30;;;3.60;;
78856;SDS011;68207;50.078;19.936;2023-05-27T01:03:53;8.00;;;3.80;;
78856;SDS011;68207;50.078;19.936;2023-05-27T01:09:14;10.90;;;3.80;;
78856;SDS011;68207;50.078;19.936;2023-05-27T01:11:43;11.60;;;4.00;;
78856;SDS011;68207;50.078;19.936;2023-05-27T01:14:10;12.10;;;4.20;;
78856;SDS011;68207;50.078;19.936;2023-05-27T01:16:37;12.20;;;4.20;;
78856;SDS011;68207;50.078;19.936;2023-05-27T01:19:05;8.80;;;3.80;;
78856;SDS011;68207;50.078;19.936;2023-05-27T01:21:34;7.70;;;3.10;;
78856;SDS011;68207;50.078;19.936;2023-05-27T01:24:05;9.70;;;3.90;;
78856;SDS011;68207;50.078;19.936;2023-05-27T01:26:30;9.50;;;3.80;;
78856;SDS011;68207;50.078;19.936;2023-05-27T01:28:56;8.50;;;4.00;;
78856;SDS011;68207;50.078;19.936;2023-05-27T01:31:30;10.90;;;4.20;;
78856;SDS011;68207;50.078;19.936;2023-05-27T01:34:01;10.40;;;3.80;;
78856;SDS011;68207;50.078;19.936;2023-05-27T01:36:27;10.80;;;4.10;;
78856;SDS011;68207;50.078;19.936;2023-05-27T01:38:54;8.20;;;4.10;;
78856;SDS011;68207;50.078;19.936;2023-05-27T01:41:20;12.90;;;4.40;;
78856;SDS011;68207;50.078;19.936;2023-05-27T01:43:47;11.30;;;3.80;;
78856;SDS011;68207;50.078;19.936;2023-05-27T01:46:13;9.40;;;3.90;;
78856;SDS011;68207;50.078;19.936;2023-05-27T01:48:38;13.90;;;4.20;;
78856;SDS011;68207;50.078;19.936;2023-05-27T01:51:04;11.30;;;4.50;;
78856;SDS011;68207;50.078;19.936;2023-05-27T01:53:30;10.60;;;4.50;;
78856;SDS011;68207;50.078;19.936;2023-05-27T01:55:55;10.40;;;4.20;;
78856;SDS011;68207;50.078;19.936;2023-05-27T01:58:20;11.80;;;4.40;;
78856;SDS011;68207;50.078;19.936;2023-05-27T02:00:46;9.80;;;4.40;;
78856;SDS011;68207;50.078;19.936;2023-05-27T02:03:11;12.70;;;4.40;;
78856;SDS011;68207;50.078;19.936;2023-05-27T02:05:36;11.40;;;4.40;;
78856;SDS011;68207;50.078;19.936;2023-05-27T02:08:02;11.50;;;4.50;;
78856;SDS011;68207;50.078;19.936;2023-05-27T02:10:27;13.50;;;4.30;;
78856;SDS011;68207;50.078;19.936;2023-05-27T02:12:53;10.20;;;4.40;;
78856;SDS011;68207;50.078;19.936;2023-05-27T02:15:18;9.00;;;4.10;;
78856;SDS011;68207;50.078;19.936;2023-05-27T02:17:44;8.10;;;4.10;;
78856;SDS011;68207;50.078;19.936;2023-05-27T02:20:16;11.10;;;4.40;;
78856;SDS011;68207;50.078;19.936;2023-05-27T02:22:41;10.80;;;4.40;;
78856;SDS011;68207;50.078;19.936;2023-05-27T02:25:06;11.00;;;4.00;;
78856;SDS011;68207;50.078;19.936;2023-05-27T02:27:32;7.40;;;4.10;;
78856;SDS011;68207;50.078;19.936;2023-05-27T02:29:57;8.60;;;4.40;;
78856;SDS011;68207;50.078;19.936;2023-05-27T02:32:23;8.50;;;4.30;;
78856;SDS011;68207;50.078;19.936;2023-05-27T02:34:48;9.70;;;4.20;;
78856;SDS011;68207;50.078;19.936;2023-05-27T02:37:14;11.50;;;4.60;;
78856;SDS011;68207;50.078;19.936;2023-05-27T02:39:40;10.70;;;4.40;;
78856;SDS011;68207;50.078;19.936;2023-05-27T02:42:05;13.60;;;4.70;;
78856;SDS011;68207;50.078;19.936;2023-05-27T02:44:31;7.90;;;4.40;;
78856;SDS011;68207;50.078;19.936;2023-05-27T02:46:56;9.70;;;4.00;;
78856;SDS011;68207;50.078;19.936;2023-05-27T02:49:22;11.40;;;4.70;;
78856;SDS011;68207;50.078;19.936;2023-05-27T02:51:47;10.70;;;4.50;;
78856;SDS011;68207;50.078;19.936;2023-05-27T02:54:12;11.50;;;5.50;;
78856;SDS011;68207;50.078;19.936;2023-05-27T02:56:37;10.60;;;4.60;;
78856;SDS011;68207;50.078;19.936;2023-05-27T02:59:03;10.80;;;4.20;;
78856;SDS011;68207;50.078;19.936;2023-05-27T03:01:28;8.70;;;4.10;;
78856;SDS011;68207;50.078;19.936;2023-05-27T03:03:53;12.90;;;4.20;;
78856;SDS011;68207;50.078;19.936;2023-05-27T03:06:28;10.50;;;4.20;;
78856;SDS011;68207;50.078;19.936;2023-05-27T03:08:53;11.10;;;4.60;;
78856;SDS011;68207;50.078;19.936;2023-05-27T03:11:19;13.10;;;4.10;;
78856;SDS011;68207;50.078;19.936;2023-05-27T03:13:44;15.40;;;5.10;;
78856;SDS011;68207;50.078;19.936;2023-05-27T03:16:10;11.20;;;4.10;;
78856;SDS011;68207;50.078;19.936;2023-05-27T03:18:36;9.70;;;4.00;;
78856;SDS011;68207;50.078;19.936;2023-05-27T03:21:01;12.00;;;4.70;;
78856;SDS011;68207;50.078;19.936;2023-05-27T03:23:26;9.30;;;4.70;;
78856;SDS011;68207;50.078;19.936;2023-05-27T03:25:52;11.70;;;4.20;;
78856;SDS011;68207;50.078;19.936;2023-05-27T03:28:17;13.00;;;4.80;;
78856;SDS011;68207;50.078;19.936;2023-05-27T03:30:42;14.10;;;4.50;;
78856;SDS011;68207;50.078;19.936;2023-05-27T03:33:08;16.00;;;4.90;;
78856;SDS011;68207;50.078;19.936;2023-05-27T03:35:33;12.90;;;5.30;;
78856;SDS011;68207;50.078;19.936;2023-05-27T03:37:59;13.90;;;5.10;;
78856;SDS011;68207;50.078;19.936;2023-05-27T03:40:24;10.90;;;4.30;;
78856;SDS011;68207;50.078;19.936;2023-05-27T03:42:50;10.30;;;4.50;;
78856;SDS011;68207;50.078;19.936;2023-05-27T03:45:15;13.30;;;4.90;;
78856;SDS011;68207;50.078;19.936;2023-05-27T03:47:40;11.40;;;4.30;;
78856;SDS011;68207;50.078;19.936;2023-05-27T03:50:06;12.10;;;4.30;;
78856;SDS011;68207;50.078;19.936;2023-05-27T03:52:31;14.20;;;5.00;;
78856;SDS011;68207;50.078;19.936;2023-05-27T03:54:56;17.00;;;4.70;;
78856;SDS011;68207;50.078;19.936;2023-05-27T03:57:22;16.70;;;5.00;;
78856;SDS011;68207;50.078;19.936;2023-05-27T03:59:47;15.30;;;5.30;;
78856;SDS011;68207;50.078;19.936;2023-05-27T04:02:12;13.80;;;4.70;;
78856;SDS011;68207;50.078;19.936;2023-05-27T04:04:38;8.00;;;4.40;;
78856;SDS011;68207;50.078;19.936;2023-05-27T04:07:03;11.80;;;4.90;;
78856;SDS011;68207;50.078;19.936;2023-05-27T04:09:28;14.40;;;5.20;;
78856;SDS011;68207;50.078;19.936;2023-05-27T04:11:54;8.20;;;4.40;;
78856;SDS011;68207;50.078;19.936;2023-05-27T04:14:19;12.00;;;4.30;;
78856;SDS011;68207;50.078;19.936;2023-05-27T04:16:45;12.10;;;4.40;;
78856;SDS011;68207;50.078;19.936;2023-05-27T04:19:10;15.10;;;5.10;;
78856;SDS011;68207;50.078;19.936;2023-05-27T04:21:35;10.50;;;4.50;;
78856;SDS011;68207;50.078;19.936;2023-05-27T04:24:02;11.40;;;4.60;;
78856;SDS011;68207;50.078;19.936;2023-05-27T04:26:27;12.20;;;4.20;;
78856;SDS011;68207;50.078;19.936;2023-05-27T04:28:52;13.10;;;4.80;;
78856;SDS011;68207;50.078;19.936;2023-05-27T04:31:18;10.30;;;4.10;;
78856;SDS011;68207;50.078;19.936;2023-05-27T04:33:43;10.00;;;4.20;;
78856;SDS011;68207;50.078;19.936;2023-05-27T04:36:09;11.70;;;4.20;;
78856;SDS011;68207;50.078;19.936;2023-05-27T04:38:34;12.30;;;4.60;;
78856;SDS011;68207;50.078;19.936;2023-05-27T04:41:00;10.10;;;4.40;;
78856;SDS011;68207;50.078;19.936;2023-05-27T04:43:25;10.20;;;4.70;;
78856;SDS011;68207;50.078;19.936;2023-05-27T04:45:52;13.10;;;4.10;;
78856;SDS011;68207;50.078;19.936;2023-05-27T04:48:17;9.90;;;4.20;;
78856;SDS011;68207;50.078;19.936;2023-05-27T04:50:43;11.10;;;4.30;;
78856;SDS011;68207;50.078;19.936;2023-05-27T04:53:08;12.50;;;4.90;;
78856;SDS011;68207;50.078;19.936;2023-05-27T04:55:33;13.40;;;4.70;;
78856;SDS011;68207;50.078;19.936;2023-05-27T04:57:59;11.60;;;4.60;;
78856;SDS011;68207;50.078;19.936;2023-05-27T05:00:27;11.00;;;4.60;;
78856;SDS011;68207;50.078;19.936;2023-05-27T05:03:06;12.20;;;4.20;;
78856;SDS011;68207;50.078;19.936;2023-05-27T05:05:32;15.50;;;4.20;;
78856;SDS011;68207;50.078;19.936;2023-05-27T05:07:58;10.50;;;4.10;;
78856;SDS011;68207;50.078;19.936;2023-05-27T05:10:23;14.30;;;4.80;;
78856;SDS011;68207;50.078;19.936;2023-05-27T05:12:48;15.50;;;4.20;;
78856;SDS011;68207;50.078;19.936;2023-05-27T05:15:14;14.40;;;4.40;;
78856;SDS011;68207;50.078;19.936;2023-05-27T05:17:39;14.90;;;4.20;;
78856;SDS011;68207;50.078;19.936;2023-05-27T05:20:04;12.70;;;4.60;;
78856;SDS011;68207;50.078;19.936;2023-05-27T05:22:31;9.50;;;3.90;;
78856;SDS011;68207;50.078;19.936;2023-05-27T05:24:56;9.40;;;4.10;;
78856;SDS011;68207;50.078;19.936;2023-05-27T05:27:23;12.00;;;4.30;;
78856;SDS011;68207;50.078;19.936;2023-05-27T05:29:48;8.10;;;3.60;;
78856;SDS011;68207;50.078;19.936;2023-05-27T05:32:13;12.20;;;3.70;;
78856;SDS011;68207;50.078;19.936;2023-05-27T05:34:39;9.80;;;4.60;;
78856;SDS011;68207;50.078;19.936;2023-05-27T05:37:05;10.80;;;3.80;;
78856;SDS011;68207;50.078;19.936;2023-05-27T05:39:30;10.50;;;4.30;;
78856;SDS011;68207;50.078;19.936;2023-05-27T05:41:56;12.00;;;3.70;;
78856;SDS011;68207;50.078;19.936;2023-05-27T05:44:22;13.70;;;4.50;;
78856;SDS011;68207;50.078;19.936;2023-05-27T05:46:48;11.20;;;3.60;;
78856;SDS011;68207;50.078;19.936;2023-05-27T05:49:13;8.30;;;4.00;;
78856;SDS011;68207;50.078;19.936;2023-05-27T05:51:38;16.50;;;4.50;;
78856;SDS011;68207;50.078;19.936;2023-05-27T05:54:03;12.90;;;4.20;;
78856;SDS011;68207;50.078;19.936;2023-05-27T05:56:29;10.60;;;3.90;;
78856;SDS011;68207;50.078;19.936;2023-05-27T05:58:55;10.40;;;3.80;;
78856;SDS011;68207;50.078;19.936;2023-05-27T06:01:20;10.90;;;3.90;;
78856;SDS011;68207;50.078;19.936;2023-05-27T06:03:45;11.80;;;4.40;;
78856;SDS011;68207;50.078;19.936;2023-05-27T06:06:11;14.50;;;4.20;;
78856;SDS011;68207;50.078;19.936;2023-05-27T06:08:36;11.60;;;4.40;;
78856;SDS011;68207;50.078;19.936;2023-05-27T06:11:01;11.10;;;4.50;;
78856;SDS011;68207;50.078;19.936;2023-05-27T06:13:27;12.90;;;4.30;;
78856;SDS011;68207;50.078;19.936;2023-05-27T06:15:52;12.40;;;4.40;;
78856;SDS011;68207;50.078;19.936;2023-05-27T06:18:18;15.80;;;4.60;;
78856;SDS011;68207;50.078;19.936;2023-05-27T06:20:43;11.60;;;4.50;;
78856;SDS011;68207;50.078;19.936;2023-05-27T06:23:08;12.40;;;3.90;;
78856;SDS011;68207;50.078;19.936;2023-05-27T06:25:34;10.40;;;4.40;;
78856;SDS011;68207;50.078;19.936;2023-05-27T06:27:59;10.80;;;4.30;;
78856;SDS011;68207;50.078;19.936;2023-05-27T06:30:24;13.00;;;4.60;;
78856;SDS011;68207;50.078;19.936;2023-05-27T06:32:50;11.40;;;3.80;;
78856;SDS011;68207;50.078;19.936;2023-05-27T06:35:16;12.70;;;3.70;;
78856;SDS011;68207;50.078;19.936;2023-05-27T06:37:41;10.60;;;3.80;;
78856;SDS011;68207;50.078;19.936;2023-05-27T06:40:06;12.40;;;4.80;;
78856;SDS011;68207;50.078;19.936;2023-05-27T06:42:32;11.30;;;4.50;;
78856;SDS011;68207;50.078;19.936;2023-05-27T06:44:57;10.90;;;4.30;;
78856;SDS011;68207;50.078;19.936;2023-05-27T06:47:22;12.20;;;4.60;;
78856;SDS011;68207;50.078;19.936;2023-05-27T06:49:48;10.00;;;3.90;;
78856;SDS011;68207;50.078;19.936;2023-05-27T06:52:13;13.60;;;4.50;;
78856;SDS011;68207;50.078;19.936;2023-05-27T06:54:38;9.80;;;3.50;;
78856;SDS011;68207;50.078;19.936;2023-05-27T06:57:03;14.40;;;4.20;;
78856;SDS011;68207;50.078;19.936;2023-05-27T06:59:29;10.50;;;4.60;;
78856;SDS011;68207;50.078;19.936;2023-05-27T07:01:54;11.90;;;4.20;;
78856;SDS011;68207;50.078;19.936;2023-05-27T07:04:21;11.70;;;4.10;;
78856;SDS011;68207;50.078;19.936;2023-05-27T07:06:46;8.70;;;4.00;;
78856;SDS011;68207;50.078;19.936;2023-05-27T07:09:11;10.40;;;3.60;;
78856;SDS011;68207;50.078;19.936;2023-05-27T07:11:37;9.20;;;3.60;;
78856;SDS011;68207;50.078;19.936;2023-05-27T07:14:03;10.50;;;3.90;;
78856;SDS011;68207;50.078;19.936;2023-05-27T07:16:28;14.00;;;4.70;;
78856;SDS011;68207;50.078;19.936;2023-05-27T07:18:54;11.30;;;4.00;;
78856;SDS011;68207;50.078;19.936;2023-05-27T07:21:19;15.70;;;4.30;;
78856;SDS011;68207;50.078;19.936;2023-05-27T07:23:44;12.90;;;4.40;;
78856;SDS011;68207;50.078;19.936;2023-05-27T07:26:10;11.00;;;3.80;;
78856;SDS011;68207;50.078;19.936;2023-05-27T07:28:35;10.40;;;3.70;;
78856;SDS011;68207;50.078;19.936;2023-05-27T07:31:02;9.80;;;3.90;;
78856;SDS011;68207;50.078;19.936;2023-05-27T07:33:27;11.40;;;3.70;;
78856;SDS011;68207;50.078;19.936;2023-05-27T07:35:53;9.40;;;3.80;;
78856;SDS011;68207;50.078;19.936;2023-05-27T07:38:18;14.30;;;4.40;;
78856;SDS011;68207;50.078;19.936;2023-05-27T07:40:43;8.60;;;3.50;;
78856;SDS011;68207;50.078;19.936;2023-05-27T07:43:09;9.30;;;3.30;;
78856;SDS011;68207;50.078;19.936;2023-05-27T07:45:34;13.10;;;4.00;;
78856;SDS011;68207;50.078;19.936;2023-05-27T07:47:59;11.60;;;4.30;;
78856;SDS011;68207;50.078;19.936;2023-05-27T07:50:24;10.10;;;3.70;;
78856;SDS011;68207;50.078;19.936;2023-05-27T07:52:50;14.30;;;4.50;;
78856;SDS011;68207;50.078;19.936;2023-05-27T07:55:15;9.10;;;3.60;;
78856;SDS011;68207;50.078;19.936;2023-05-27T08:00:08;14.70;;;3.60;;
78856;SDS011;68207;50.078;19.936;2023-05-27T08:02:34;13.90;;;4.50;;
78856;SDS011;68207;50.078;19.936;2023-05-27T08:05:00;9.70;;;4.00;;
78856;SDS011;68207;50.078;19.936;2023-05-27T08:07:25;7.60;;;4.00;;
78856;SDS011;68207;50.078;19.936;2023-05-27T08:09:50;11.30;;;4.30;;
78856;SDS011;68207;50.078;19.936;2023-05-27T08:12:16;11.30;;;4.20;;
78856;SDS011;68207;50.078;19.936;2023-05-27T08:14:41;10.20;;;3.80;;
78856;SDS011;68207;50.078;19.936;2023-05-27T08:17:07;10.20;;;3.80;;
78856;SDS011;68207;50.078;19.936;2023-05-27T08:19:32;10.60;;;3.90;;
78856;SDS011;68207;50.078;19.936;2023-05-27T08:21:57;10.90;;;3.90;;
78856;SDS011;68207;50.078;19.936;2023-05-27T08:26:49;9.00;;;3.50;;
78856;SDS011;68207;50.078;19.936;2023-05-27T08:29:15;9.30;;;4.20;;
78856;SDS011;68207;50.078;19.936;2023-05-27T08:31:40;11.00;;;4.30;;
78856;SDS011;68207;50.078;19.936;2023-05-27T08:34:06;13.10;;;4.40;;
78856;SDS011;68207;50.078;19.936;2023-05-27T08:36:31;8.90;;;4.00;;
78856;SDS011;68207;50.078;19.936;2023-05-27T08:38:56;8.90;;;3.80;;
78856;SDS011;68207;50.078;19.936;2023-05-27T08:41:22;10.50;;;4.10;;
78856;SDS011;68207;50.078;19.936;2023-05-27T08:43:47;10.70;;;4.00;;
78856;SDS011;68207;50.078;19.936;2023-05-27T08:46:12;10.50;;;4.10;;
78856;SDS011;68207;50.078;19.936;2023-05-27T08:48:39;9.50;;;4.10;;
78856;SDS011;68207;50.078;19.936;2023-05-27T08:51:05;13.80;;;4.50;;
78856;SDS011;68207;50.078;19.936;2023-05-27T08:53:30;11.30;;;4.10;;
78856;SDS011;68207;50.078;19.936;2023-05-27T08:55:56;13.30;;;4.30;;
78856;SDS011;68207;50.078;19.936;2023-05-27T08:58:22;12.50;;;4.20;;
78856;SDS011;68207;50.078;19.936;2023-05-27T09:00:48;15.60;;;5.00;;
78856;SDS011;68207;50.078;19.936;2023-05-27T09:03:13;9.20;;;3.70;;
78856;SDS011;68207;50.078;19.936;2023-05-27T09:08:05;10.20;;;4.20;;
78856;SDS011;68207;50.078;19.936;2023-05-27T09:10:36;9.80;;;4.10;;
78856;SDS011;68207;50.078;19.936;2023-05-27T09:13:02;13.40;;;4.60;;
78856;SDS011;68207;50.078;19.936;2023-05-27T09:15:27;12.20;;;4.30;;
78856;SDS011;68207;50.078;19.936;2023-05-27T09:17:53;13.50;;;4.70;;
78856;SDS011;68207;50.078;19.936;2023-05-27T09:20:23;13.10;;;3.80;;
78856;SDS011;68207;50.078;19.936;2023-05-27T09:22:49;9.90;;;4.30;;
78856;SDS011;68207;50.078;19.936;2023-05-27T09:25:23;8.90;;;4.10;;
78856;SDS011;68207;50.078;19.936;2023-05-27T09:27:48;11.20;;;4.10;;
78856;SDS011;68207;50.078;19.936;2023-05-27T09:30:14;10.40;;;3.80;;
78856;SDS011;68207;50.078;19.936;2023-05-27T09:32:39;12.00;;;4.00;;
78856;SDS011;68207;50.078;19.936;2023-05-27T09:35:05;10.40;;;4.10;;
78856;SDS011;68207;50.078;19.936;2023-05-27T09:37:31;10.30;;;4.00;;
78856;SDS011;68207;50.078;19.936;2023-05-27T09:39:57;10.70;;;4.50;;
78856;SDS011;68207;50.078;19.936;2023-05-27T09:44:48;10.20;;;3.90;;
78856;SDS011;68207;50.078;19.936;2023-05-27T09:47:13;14.20;;;3.80;;
78856;SDS011;68207;50.078;19.936;2023-05-27T09:49:41;10.60;;;3.50;;
78856;SDS011;68207;50.078;19.936;2023-05-27T09:52:07;9.10;;;3.90;;
78856;SDS011;68207;50.078;19.936;2023-05-27T09:54:34;9.10;;;3.60;;
78856;SDS011;68207;50.078;19.936;2023-05-27T09:57:01;7.80;;;3.80;;
78856;SDS011;68207;50.078;19.936;2023-05-27T09:59:26;10.40;;;4.20;;
78856;SDS011;68207;50.078;19.936;2023-05-27T10:01:52;9.80;;;3.40;;
78856;SDS011;68207;50.078;19.936;2023-05-27T10:04:18;8.80;;;3.40;;
78856;SDS011;68207;50.078;19.936;2023-05-27T10:06:44;8.70;;;3.40;;
78856;SDS011;68207;50.078;19.936;2023-05-27T10:09:09;8.50;;;3.50;;
78856;SDS011;68207;50.078;19.936;2023-05-27T10:11:35;8.30;;;3.60;;
78856;SDS011;68207;50.078;19.936;2023-05-27T10:14:04;7.80;;;3.20;;
78856;SDS011;68207;50.078;19.936;2023-05-27T10:16:29;9.40;;;3.50;;
78856;SDS011;68207;50.078;19.936;2023-05-27T10:18:58;5.70;;;3.40;;
78856;SDS011;68207;50.078;19.936;2023-05-27T10:21:26;8.20;;;3.60;;
78856;SDS011;68207;50.078;19.936;2023-05-27T10:26:30;8.40;;;3.50;;
78856;SDS011;68207;50.078;19.936;2023-05-27T10:29:04;8.00;;;3.70;;
78856;SDS011;68207;50.078;19.936;2023-05-27T10:31:29;7.00;;;3.60;;
78856;SDS011;68207;50.078;19.936;2023-05-27T10:33:56;7.20;;;4.20;;
78856;SDS011;68207;50.078;19.936;2023-05-27T10:36:23;8.20;;;3.70;;
78856;SDS011;68207;50.078;19.936;2023-05-27T10:38:58;6.70;;;4.00;;
78856;SDS011;68207;50.078;19.936;2023-05-27T10:41:24;9.10;;;4.50;;
78856;SDS011;68207;50.078;19.936;2023-05-27T10:43:56;8.30;;;4.10;;
78856;SDS011;68207;50.078;19.936;2023-05-27T10:46:22;7.90;;;3.90;;
78856;SDS011;68207;50.078;19.936;2023-05-27T10:48:47;7.80;;;4.00;;
78856;SDS011;68207;50.078;19.936;2023-05-27T10:51:13;6.30;;;3.50;;
78856;SDS011;68207;50.078;19.936;2023-05-27T10:53:38;7.00;;;4.00;;
78856;SDS011;68207;50.078;19.936;2023-05-27T10:56:03;5.90;;;3.90;;
78856;SDS011;68207;50.078;19.936;2023-05-27T11:00:55;6.60;;;3.50;;
78856;SDS011;68207;50.078;19.936;2023-05-27T11:03:23;7.90;;;3.80;;
78856;SDS011;68207;50.078;19.936;2023-05-27T11:06:04;5.70;;;3.80;;
78856;SDS011;68207;50.078;19.936;2023-05-27T11:08:30;6.80;;;4.00;;
78856;SDS011;68207;50.078;19.936;2023-05-27T11:10:58;7.20;;;4.00;;
78856;SDS011;68207;50.078;19.936;2023-05-27T11:13:33;7.10;;;4.30;;
78856;SDS011;68207;50.078;19.936;2023-05-27T11:16:00;10.00;;;4.70;;
78856;SDS011;68207;50.078;19.936;2023-05-27T11:18:33;7.20;;;4.50;;
78856;SDS011;68207;50.078;19.936;2023-05-27T11:20:58;8.30;;;5.30;;
78856;SDS011;68207;50.078;19.936;2023-05-27T11:23:32;7.80;;;4.70;;
78856;SDS011;68207;50.078;19.936;2023-05-27T11:25:58;7.90;;;4.40;;
78856;SDS011;68207;50.078;19.936;2023-05-27T11:28:23;8.40;;;4.10;;
78856;SDS011;68207;50.078;19.936;2023-05-27T11:30:48;8.00;;;4.60;;
78856;SDS011;68207;50.078;19.936;2023-05-27T11:33:15;8.10;;;4.50;;
78856;SDS011;68207;50.078;19.936;2023-05-27T11:35:41;6.80;;;4.50;;
78856;SDS011;68207;50.078;19.936;2023-05-27T11:38:15;7.50;;;4.40;;
78856;SDS011;68207;50.078;19.936;2023-05-27T11:40:41;6.60;;;4.80;;
78856;SDS011;68207;50.078;19.936;2023-05-27T11:43:06;8.30;;;4.20;;
78856;SDS011;68207;50.078;19.936;2023-05-27T11:45:34;7.90;;;4.30;;
78856;SDS011;68207;50.078;19.936;2023-05-27T11:48:00;6.70;;;4.50;;
78856;SDS011;68207;50.078;19.936;2023-05-27T11:50:25;7.80;;;4.70;;
78856;SDS011;68207;50.078;19.936;2023-05-27T11:52:53;7.60;;;3.90;;
78856;SDS011;68207;50.078;19.936;2023-05-27T11:55:19;7.30;;;3.90;;
78856;SDS011;68207;50.078;19.936;2023-05-27T11:57:44;6.70;;;4.00;;
78856;SDS011;68207;50.078;19.936;2023-05-27T12:00:10;7.00;;;4.10;;
78856;SDS011;68207;50.078;19.936;2023-05-27T12:02:36;7.40;;;3.80;;
78856;SDS011;68207;50.078;19.936;2023-05-27T12:05:02;8.10;;;4.10;;
78856;SDS011;68207;50.078;19.936;2023-05-27T12:07:27;7.20;;;4.00;;
78856;SDS011;68207;50.078;19.936;2023-05-27T12:09:52;6.10;;;3.80;;
78856;SDS011;68207;50.078;19.936;2023-05-27T12:12:20;8.00;;;4.20;;
78856;SDS011;68207;50.078;19.936;2023-05-27T12:14:46;5.80;;;3.40;;
78856;SDS011;68207;50.078;19.936;2023-05-27T12:17:11;5.70;;;4.00;;
78856;SDS011;68207;50.078;19.936;2023-05-27T12:19:36;6.30;;;3.60;;
78856;SDS011;68207;50.078;19.936;2023-05-27T12:22:02;9.20;;;3.70;;
78856;SDS011;68207;50.078;19.936;2023-05-27T12:26:53;6.00;;;3.60;;
78856;SDS011;68207;50.078;19.936;2023-05-27T12:29:18;6.40;;;3.50;;
78856;SDS011;68207;50.078;19.936;2023-05-27T12:31:45;6.60;;;3.50;;
78856;SDS011;68207;50.078;19.936;2023-05-27T12:34:10;5.40;;;3.60;;
78856;SDS011;68207;50.078;19.936;2023-05-27T12:36:36;6.00;;;3.50;;
78856;SDS011;68207;50.078;19.936;2023-05-27T12:39:01;6.20;;;3.30;;
78856;SDS011;68207;50.078;19.936;2023-05-27T12:41:26;5.20;;;3.50;;
78856;SDS011;68207;50.078;19.936;2023-05-27T12:43:52;7.20;;;3.60;;
78856;SDS011;68207;50.078;19.936;2023-05-27T12:46:17;5.50;;;3.60;;
78856;SDS011;68207;50.078;19.936;2023-05-27T12:48:42;4.80;;;3.00;;
78856;SDS011;68207;50.078;19.936;2023-05-27T12:51:09;5.20;;;3.00;;
78856;SDS011;68207;50.078;19.936;2023-05-27T12:53:34;5.80;;;2.90;;
78856;SDS011;68207;50.078;19.936;2023-05-27T12:56:00;5.90;;;3.20;;
78856;SDS011;68207;50.078;19.936;2023-05-27T12:58:26;5.30;;;3.10;;
78856;SDS011;68207;50.078;19.936;2023-05-27T13:00:51;5.00;;;3.00;;
78856;SDS011;68207;50.078;19.936;2023-05-27T13:03:16;5.20;;;3.10;;
78856;SDS011;68207;50.078;19.936;2023-05-27T13:05:42;5.80;;;2.90;;
78856;SDS011;68207;50.078;19.936;2023-05-27T13:08:08;6.10;;;2.70;;
78856;SDS011;68207;50.078;19.936;2023-05-27T13:10:33;5.80;;;3.40;;
78856;SDS011;68207;50.078;19.936;2023-05-27T13:12:59;4.60;;;2.90;;
78856;SDS011;68207;50.078;19.936;2023-05-27T13:15:26;6.40;;;3.00;;
78856;SDS011;68207;50.078;19.936;2023-05-27T13:17:51;5.40;;;2.90;;
78856;SDS011;68207;50.078;19.936;2023-05-27T13:20:18;6.00;;;3.00;;
78856;SDS011;68207;50.078;19.936;2023-05-27T13:22:44;5.90;;;3.10;;
78856;SDS011;68207;50.078;19.936;2023-05-27T13:25:10;5.70;;;2.70;;
78856;SDS011;68207;50.078;19.936;2023-05-27T13:27:38;4.60;;;2.50;;
78856;SDS011;68207;50.078;19.936;2023-05-27T13:30:06;6.00;;;2.80;;
78856;SDS011;68207;50.078;19.936;2023-05-27T13:34:57;6.20;;;2.80;;
78856;SDS011;68207;50.078;19.936;2023-05-27T13:37:23;4.80;;;2.40;;
78856;SDS011;68207;50.078;19.936;2023-05-27T13:39:48;7.30;;;2.70;;
78856;SDS011;68207;50.078;19.936;2023-05-27T13:42:13;4.60;;;2.80;;
78856;SDS011;68207;50.078;19.936;2023-05-27T13:44:38;6.00;;;2.50;;
78856;SDS011;68207;50.078;19.936;2023-05-27T13:47:04;5.80;;;2.90;;
78856;SDS011;68207;50.078;19.936;2023-05-27T13:51:55;7.00;;;2.80;;
78856;SDS011;68207;50.078;19.936;2023-05-27T13:56:46;4.70;;;2.30;;
78856;SDS011;68207;50.078;19.936;2023-05-27T13:59:12;5.20;;;2.60;;
78856;SDS011;68207;50.078;19.936;2023-05-27T14:01:37;4.70;;;2.70;;
78856;SDS011;68207;50.078;19.936;2023-05-27T14:04:03;5.00;;;2.60;;
78856;SDS011;68207;50.078;19.936;2023-05-27T14:06:28;4.20;;;2.50;;
78856;SDS011;68207;50.078;19.936;2023-05-27T14:08:54;4.40;;;2.40;;
78856;SDS011;68207;50.078;19.936;2023-05-27T14:11:19;5.60;;;2.70;;
78856;SDS011;68207;50.078;19.936;2023-05-27T14:13:46;6.10;;;2.70;;
78856;SDS011;68207;50.078;19.936;2023-05-27T14:16:13;5.50;;;2.60;;
78856;SDS011;68207;50.078;19.936;2023-05-27T14:18:38;4.50;;;2.50;;
78856;SDS011;68207;50.078;19.936;2023-05-27T14:21:04;4.20;;;2.60;;
78856;SDS011;68207;50.078;19.936;2023-05-27T14:23:29;5.20;;;2.40;;
78856;SDS011;68207;50.078;19.936;2023-05-27T14:25:54;4.40;;;2.40;;
78856;SDS011;68207;50.078;19.936;2023-05-27T14:28:20;6.10;;;2.60;;
78856;SDS011;68207;50.078;19.936;2023-05-27T14:30:45;5.60;;;2.50;;
78856;SDS011;68207;50.078;19.936;2023-05-27T14:33:11;4.10;;;2.10;;
78856;SDS011;68207;50.078;19.936;2023-05-27T14:38:02;3.80;;;2.30;;
78856;SDS011;68207;50.078;19.936;2023-05-27T14:40:27;4.50;;;2.40;;
78856;SDS011;68207;50.078;19.936;2023-05-27T14:42:52;5.90;;;2.40;;
78856;SDS011;68207;50.078;19.936;2023-05-27T14:45:18;6.20;;;2.50;;
78856;SDS011;68207;50.078;19.936;2023-05-27T14:47:47;4.20;;;2.50;;
78856;SDS011;68207;50.078;19.936;2023-05-27T14:50:15;4.40;;;2.70;;